createdAt,value
2019-06-07T00:04:50.193Z,11.60
2019-06-07T00:12:03.877Z,11.60
2019-06-07T00:18:15.049Z,11.50
2019-06-07T00:24:51.008Z,11.40
2019-06-07T00:27:34.848Z,11.40
2019-06-07T00:30:32.551Z,11.40
2019-06-07T00:36:25.957Z,11.40
2019-06-07T00:42:36.861Z,11.30
2019-06-07T00:45:36.715Z,11.30
2019-06-07T00:53:11.583Z,11.30
2019-06-07T00:55:49.992Z,11.30
2019-06-07T00:58:44.174Z,11.30
2019-06-07T01:12:39.357Z,11.20
2019-06-07T01:15:15.779Z,11.20
2019-06-07T01:20:14.135Z,11.10
2019-06-07T01:21:01.729Z,11.10
2019-06-07T01:24:12.297Z,11.10
2019-06-07T01:26:51.118Z,11.10
2019-06-07T01:30:09.420Z,11.00
2019-06-07T01:32:58.998Z,11.00
2019-06-07T01:35:30.446Z,10.90
2019-06-07T01:38:01.868Z,10.90
2019-06-07T01:40:32.849Z,10.80
2019-06-07T01:43:14.066Z,10.70
2019-06-07T01:46:02.251Z,10.70
2019-06-07T01:48:49.291Z,10.70
2019-06-07T01:51:14.371Z,10.70
2019-06-07T01:53:44.027Z,10.60
2019-06-07T01:56:13.597Z,10.70
2019-06-07T01:58:43.575Z,10.60
2019-06-07T02:01:13.675Z,10.60
2019-06-07T02:03:46.509Z,10.60
2019-06-07T02:06:16.216Z,10.60
2019-06-07T02:08:51.867Z,10.60
2019-06-07T02:11:22.462Z,10.60
2019-06-07T02:14:00.567Z,10.60
2019-06-07T02:16:32.666Z,10.60
2019-06-07T02:19:03.981Z,10.60
2019-06-07T02:21:36.447Z,10.60
2019-06-07T02:24:12.861Z,10.60
2019-06-07T02:26:42.470Z,10.60
2019-06-07T02:29:14.790Z,10.60
2019-06-07T02:31:58.324Z,10.50
2019-06-07T02:41:10.214Z,10.60
2019-06-07T02:43:55.330Z,10.70
2019-06-07T02:46:39.954Z,10.70
2019-06-07T02:49:28.987Z,10.60
2019-06-07T02:52:03.936Z,10.60
2019-06-07T02:54:41.541Z,10.60
2019-06-07T02:57:18.836Z,10.50
2019-06-07T03:00:06.747Z,10.50
2019-06-07T03:02:31.614Z,10.40
2019-06-07T03:05:16.021Z,10.40
2019-06-07T03:08:04.299Z,10.40
2019-06-07T03:13:41.646Z,10.30
2019-06-07T03:16:22.330Z,10.30
2019-06-07T03:18:57.364Z,10.30
2019-06-07T03:21:29.566Z,10.30
2019-06-07T03:24:00.730Z,10.20
2019-06-07T03:27:32.256Z,10.20
2019-06-07T03:29:18.624Z,10.20
2019-06-07T03:31:53.048Z,10.20
2019-06-07T03:34:32.899Z,10.10
2019-06-07T03:37:10.236Z,10.10
2019-06-07T03:39:41.137Z,10.10
2019-06-07T03:42:15.438Z,10.20
2019-06-07T03:47:52.808Z,10.20
2019-06-07T03:50:33.834Z,10.20
2019-06-07T03:53:09.062Z,10.20
2019-06-07T03:58:49.205Z,10.30
2019-06-07T04:01:13.638Z,10.30
2019-06-07T04:03:52.115Z,10.30
2019-06-07T04:06:22.155Z,10.40
2019-06-07T04:08:54.740Z,10.40
2019-06-07T04:11:24.593Z,10.50
2019-06-07T04:13:58.615Z,10.60
2019-06-07T04:16:40.859Z,10.60
2019-06-07T04:19:31.441Z,10.70
2019-06-07T04:21:55.022Z,10.80
2019-06-07T04:24:34.701Z,10.80
2019-06-07T04:27:15.602Z,10.90
2019-06-07T04:30:07.534Z,10.90
2019-06-07T04:32:29.727Z,11.00
2019-06-07T04:34:59.666Z,11.00
2019-06-07T04:37:30.907Z,11.10
2019-06-07T04:40:06.826Z,11.20
2019-06-07T04:42:44.498Z,11.30
2019-06-07T04:45:33.839Z,11.30
2019-06-07T04:47:56.122Z,11.40
2019-06-07T04:50:43.492Z,11.50
2019-06-07T04:53:22.320Z,11.60
2019-06-07T04:55:55.919Z,11.70
2019-06-07T04:58:26.706Z,11.70
2019-06-07T05:01:03.387Z,11.80
2019-06-07T05:03:38.904Z,11.90
2019-06-07T05:06:24.861Z,12.00
2019-06-07T05:09:07.272Z,12.10
2019-06-07T05:11:46.077Z,12.20
2019-06-07T05:14:16.067Z,12.30
2019-06-07T05:16:51.974Z,12.50
2019-06-07T05:19:24.720Z,12.60
2019-06-07T05:22:07.980Z,12.70
2019-06-07T05:24:41.516Z,12.70
2019-06-07T05:27:13.131Z,12.80
2019-06-07T05:30:08.950Z,12.80
2019-06-07T05:32:21.422Z,12.90
2019-06-07T05:34:51.394Z,13.00
2019-06-07T05:37:20.984Z,13.10
2019-06-07T05:40:02.465Z,13.30
2019-06-07T05:42:41.184Z,13.40
2019-06-07T05:45:10.973Z,13.50
2019-06-07T05:47:50.265Z,13.60
2019-06-07T05:50:38.957Z,13.70
2019-06-07T05:52:59.636Z,13.70
2019-06-07T05:55:37.866Z,13.80
2019-06-07T05:58:19.028Z,13.90
2019-06-07T06:00:51.995Z,14.00
2019-06-07T06:03:21.750Z,14.20
2019-06-07T06:08:42.592Z,14.30
2019-06-07T06:11:13.289Z,14.40
2019-06-07T06:14:01.527Z,14.40
2019-06-07T06:16:15.883Z,14.50
2019-06-07T06:19:05.299Z,14.60
2019-06-07T06:21:54.747Z,14.70
2019-06-07T06:30:28.672Z,14.90
2019-06-07T06:32:59.858Z,14.90
2019-06-07T06:35:51.504Z,14.90
2019-06-07T06:39:00.000Z,14.90
2019-06-07T06:42:03.477Z,15.00
2019-06-07T06:44:54.132Z,15.00
2019-06-07T06:47:53.557Z,15.00
2019-06-07T06:51:01.418Z,15.30
2019-06-07T06:53:58.149Z,15.60
2019-06-07T06:56:27.987Z,16.00
2019-06-07T06:59:37.221Z,16.20
2019-06-07T07:05:48.636Z,16.40
2019-06-07T07:08:17.184Z,16.60
2019-06-07T07:11:23.279Z,16.80
2019-06-07T07:13:59.628Z,17.10
2019-06-07T07:16:29.322Z,17.30
2019-06-07T07:19:02.059Z,17.30
2019-06-07T07:21:45.149Z,17.40
2019-06-07T07:24:29.583Z,17.30
2019-06-07T07:27:07.659Z,17.40
2019-06-07T07:30:35.568Z,17.40
2019-06-07T07:32:45.555Z,17.30
2019-06-07T07:35:24.918Z,17.30
2019-06-07T07:38:13.916Z,17.40
2019-06-07T07:41:01.805Z,17.50
2019-06-07T07:43:19.117Z,17.60
2019-06-07T07:45:59.203Z,17.90
2019-06-07T07:48:23.006Z,18.00
2019-06-07T07:51:00.941Z,18.10
2019-06-07T07:53:48.406Z,18.40
2019-06-07T07:56:20.171Z,18.80
2019-06-07T07:58:50.287Z,19.10
2019-06-07T08:01:19.954Z,19.50
2019-06-07T08:03:50.676Z,19.60
2019-06-07T08:06:34.119Z,19.70
2019-06-07T08:09:08.543Z,19.90
2019-06-07T08:11:37.943Z,20.00
2019-06-07T08:14:07.348Z,19.90
2019-06-07T08:16:36.737Z,19.90
2019-06-07T08:19:06.363Z,19.90
2019-06-07T08:21:36.031Z,20.00
2019-06-07T08:24:05.641Z,20.20
2019-06-07T08:26:35.686Z,20.40
2019-06-07T08:29:05.558Z,20.70
2019-06-07T08:31:34.910Z,20.70
2019-06-07T08:34:06.004Z,20.80
2019-06-07T08:36:41.810Z,21.00
2019-06-07T08:39:13.358Z,21.40
2019-06-07T08:41:59.307Z,21.80
2019-06-07T08:44:23.715Z,22.20
2019-06-07T08:47:11.678Z,22.00
2019-06-07T08:49:25.103Z,22.00
2019-06-07T08:52:03.054Z,22.10
2019-06-07T08:54:27.674Z,22.40
2019-06-07T08:57:15.058Z,22.50
2019-06-07T08:59:28.151Z,22.40
2019-06-07T09:01:59.743Z,22.00
2019-06-07T09:04:28.594Z,21.80
2019-06-07T09:07:14.836Z,21.50
2019-06-07T09:09:28.941Z,21.30
2019-06-07T09:12:03.105Z,21.40
2019-06-07T09:14:29.300Z,21.70
2019-06-07T09:17:02.576Z,21.80
2019-06-07T09:19:29.658Z,21.80
2019-06-07T09:22:03.135Z,22.00
2019-06-07T09:24:31.051Z,22.00
2019-06-07T09:27:04.047Z,22.10
2019-06-07T09:29:32.601Z,22.30
2019-06-07T09:32:05.822Z,22.40
2019-06-07T09:34:33.392Z,22.50
2019-06-07T09:37:23.636Z,22.80
2019-06-07T09:39:34.645Z,23.10
2019-06-07T09:42:09.411Z,23.20
2019-06-07T09:44:35.206Z,23.40
2019-06-07T09:47:22.411Z,23.50
2019-06-07T09:49:35.972Z,23.70
2019-06-07T09:52:09.119Z,23.90
2019-06-07T09:55:05.944Z,24.20
2019-06-07T09:57:16.155Z,24.50
2019-06-07T09:59:38.880Z,24.50
2019-06-07T10:02:13.210Z,24.60
2019-06-07T10:04:39.551Z,24.80
2019-06-07T10:07:28.729Z,24.70
2019-06-07T10:10:11.694Z,24.60
2019-06-07T10:12:11.239Z,24.10
2019-06-07T10:14:44.102Z,23.90
2019-06-07T10:17:11.633Z,24.10
2019-06-07T10:19:40.974Z,24.30
2019-06-07T10:22:10.475Z,24.60
2019-06-07T10:24:39.847Z,24.70
2019-06-07T10:27:10.025Z,24.70
2019-06-07T10:29:39.414Z,24.70
2019-06-07T10:32:09.329Z,24.90
2019-06-07T10:34:38.650Z,24.60
2019-06-07T10:37:11.438Z,24.20
2019-06-07T10:39:48.749Z,24.10
2019-06-07T10:42:11.492Z,24.30
2019-06-07T10:44:41.095Z,24.60
2019-06-07T10:47:12.105Z,24.70
2019-06-07T10:49:45.216Z,24.90
2019-06-07T10:52:14.769Z,24.90
2019-06-07T10:54:44.173Z,25.30
2019-06-07T10:57:16.245Z,25.80
2019-06-07T10:59:45.784Z,26.20
2019-06-07T11:02:15.128Z,26.30
2019-06-07T11:04:44.530Z,26.30
2019-06-07T11:07:14.473Z,26.40
2019-06-07T11:09:44.277Z,26.50
2019-06-07T11:12:15.106Z,26.50
2019-06-07T11:14:44.798Z,26.50
2019-06-07T11:17:15.713Z,26.90
2019-06-07T11:19:45.307Z,27.10
2019-06-07T11:22:14.913Z,27.30
2019-06-07T11:24:51.732Z,27.20
2019-06-07T11:27:21.206Z,27.20
2019-06-07T11:29:51.541Z,27.40
2019-06-07T11:32:20.984Z,27.40
2019-06-07T11:34:50.704Z,27.50
2019-06-07T11:37:20.098Z,27.50
2019-06-07T11:39:49.612Z,27.50
2019-06-07T11:42:20.047Z,27.80
2019-06-07T11:44:56.907Z,27.90
2019-06-07T11:47:21.008Z,28.30
2019-06-07T11:49:50.499Z,28.50
2019-06-07T11:52:19.982Z,28.80
2019-06-07T11:54:49.591Z,28.70
2019-06-07T11:57:18.939Z,28.50
2019-06-07T11:59:48.570Z,28.40
2019-06-07T12:02:18.020Z,27.90
2019-06-07T12:04:47.362Z,27.50
2019-06-07T12:07:19.939Z,27.10
2019-06-07T12:09:56.442Z,26.70
2019-06-07T12:12:20.768Z,26.30
2019-06-07T12:14:50.488Z,26.30
2019-06-07T12:17:19.939Z,26.30
2019-06-07T12:19:49.635Z,26.30
2019-06-07T12:22:20.053Z,26.20
2019-06-07T12:24:49.662Z,26.20
2019-06-07T12:27:19.142Z,26.50
2019-06-07T12:29:48.841Z,26.80
2019-06-07T12:32:19.569Z,26.90
2019-06-07T12:34:49.555Z,26.90
2019-06-07T12:37:22.208Z,27.00
2019-06-07T12:39:50.265Z,27.30
2019-06-07T12:42:20.616Z,27.50
2019-06-07T12:44:51.255Z,27.70
2019-06-07T12:47:21.068Z,27.70
2019-06-07T12:49:50.729Z,27.80
2019-06-07T12:52:22.477Z,28.10
2019-06-07T12:54:51.180Z,28.20
2019-06-07T12:57:22.032Z,27.80
2019-06-07T12:59:51.557Z,27.50
2019-06-07T13:02:22.089Z,27.80
2019-06-07T13:04:51.957Z,28.10
2019-06-07T13:07:22.499Z,28.20
2019-06-07T13:09:52.234Z,28.50
2019-06-07T13:12:21.768Z,28.70
2019-06-07T13:14:51.341Z,28.70
2019-06-07T13:17:22.206Z,28.60
2019-06-07T13:19:51.693Z,28.20
2019-06-07T13:22:22.282Z,27.90
2019-06-07T13:24:51.953Z,27.60
2019-06-07T13:27:22.397Z,27.40
2019-06-07T13:29:51.864Z,27.30
2019-06-07T13:32:21.668Z,27.30
2019-06-07T13:34:51.319Z,27.30
2019-06-07T13:37:21.132Z,27.20
2019-06-07T13:39:52.319Z,27.00
2019-06-07T13:42:22.820Z,27.10
2019-06-07T13:44:52.468Z,27.80
2019-06-07T13:47:23.012Z,28.10
2019-06-07T13:49:55.101Z,28.00
2019-06-07T13:52:23.946Z,27.60
2019-06-07T13:54:53.451Z,27.00
2019-06-07T13:57:24.262Z,26.60
2019-06-07T13:59:53.769Z,26.30
2019-06-07T14:02:24.038Z,26.10
2019-06-07T14:04:54.187Z,26.00
2019-06-07T14:07:26.356Z,25.90
2019-06-07T14:09:54.872Z,25.70
2019-06-07T14:12:26.071Z,25.40
2019-06-07T14:14:55.330Z,25.00
2019-06-07T14:17:25.310Z,24.70
2019-06-07T14:19:54.815Z,24.40
2019-06-07T14:22:24.766Z,24.30
2019-06-07T14:24:55.302Z,24.20
2019-06-07T14:27:25.450Z,24.30
2019-06-07T14:29:54.907Z,24.50
2019-06-07T14:32:24.962Z,24.60
2019-06-07T14:34:54.386Z,24.50
2019-06-07T14:37:24.860Z,24.20
2019-06-07T14:39:54.338Z,23.90
2019-06-07T14:42:25.251Z,23.80
2019-06-07T14:44:54.787Z,23.60
2019-06-07T14:47:25.962Z,23.40
2019-06-07T14:49:55.564Z,23.00
2019-06-07T14:52:30.685Z,22.70
2019-06-07T14:55:09.827Z,22.30
2019-06-07T14:57:39.475Z,21.90
2019-06-07T15:00:15.711Z,21.60
2019-06-07T15:02:45.062Z,21.30
2019-06-07T15:05:14.536Z,21.00
2019-06-07T15:07:44.050Z,20.70
2019-06-07T15:10:13.964Z,20.40
2019-06-07T15:12:43.612Z,19.90
2019-06-07T15:15:13.387Z,19.50
2019-06-07T15:17:42.769Z,19.30
2019-06-07T15:20:38.623Z,19.20
2019-06-07T15:23:08.633Z,19.20
2019-06-07T15:25:46.441Z,19.00
2019-06-07T15:28:19.164Z,18.80
2019-06-07T15:30:57.028Z,18.70
2019-06-07T15:33:38.408Z,18.70
2019-06-07T15:36:08.225Z,18.50
2019-06-07T15:38:39.259Z,18.40
2019-06-07T15:41:09.026Z,18.30
2019-06-07T15:43:40.080Z,18.00
2019-06-07T15:46:10.052Z,17.90
2019-06-07T15:48:44.987Z,17.80
2019-06-07T15:51:15.675Z,17.70
2019-06-07T15:53:46.638Z,17.60
2019-06-07T15:56:16.099Z,17.60
2019-06-07T15:58:45.488Z,17.50
2019-06-07T16:01:15.095Z,17.40
2019-06-07T16:03:44.660Z,17.40
2019-06-07T16:06:43.425Z,17.40
2019-06-07T16:09:13.139Z,17.40
2019-06-07T16:11:43.672Z,17.40
2019-06-07T16:14:15.261Z,17.30
2019-06-07T16:16:44.758Z,17.30
2019-06-07T16:19:14.200Z,17.30
2019-06-07T16:22:52.569Z,17.20
2019-06-07T16:25:14.864Z,17.10
2019-06-07T16:28:26.796Z,17.10
2019-06-07T16:34:52.234Z,16.70
2019-06-07T16:40:32.600Z,15.80
2019-06-07T16:43:16.394Z,15.60
2019-06-07T16:45:33.523Z,15.60
2019-06-07T16:48:02.846Z,15.60
2019-06-07T16:50:32.397Z,15.60
2019-06-07T16:53:06.532Z,15.60
2019-06-07T16:55:36.495Z,15.50
2019-06-07T16:58:06.842Z,15.50
2019-06-07T17:00:59.722Z,15.50
2019-06-07T17:03:29.859Z,15.50
2019-06-07T17:05:59.219Z,15.50
2019-06-07T17:08:29.208Z,15.40
2019-06-07T17:11:01.681Z,15.50
2019-06-07T17:14:08.580Z,15.40
2019-06-07T17:16:50.580Z,15.50
2019-06-07T17:19:57.367Z,15.50
2019-06-07T17:26:21.109Z,15.60
2019-06-07T17:29:24.317Z,15.70
2019-06-07T17:33:06.306Z,15.70
2019-06-07T17:35:15.167Z,15.70
2019-06-07T17:37:47.531Z,15.70
2019-06-07T17:40:38.457Z,15.80
2019-06-07T17:43:27.933Z,15.80
2019-06-07T17:46:24.383Z,15.80
2019-06-07T17:49:07.129Z,15.80
2019-06-07T17:52:04.070Z,15.80
2019-06-07T17:54:50.896Z,15.90
2019-06-07T17:57:25.178Z,15.90
2019-06-07T18:02:48.769Z,16.00
2019-06-07T18:05:28.284Z,16.10
2019-06-07T18:11:30.019Z,16.10
2019-06-07T18:14:11.103Z,16.10
2019-06-07T18:16:38.538Z,16.10
2019-06-07T18:19:07.849Z,16.10
2019-06-07T18:28:44.788Z,16.10
2019-06-07T18:31:37.410Z,16.10
2019-06-07T18:38:04.761Z,16.10
2019-06-07T18:40:55.258Z,16.20
2019-06-07T18:43:53.140Z,16.20
2019-06-07T18:46:54.649Z,16.20
2019-06-07T18:52:56.983Z,16.30
2019-06-07T18:59:01.565Z,16.30
2019-06-07T19:02:51.871Z,16.40
2019-06-07T19:10:23.519Z,16.30
2019-06-07T19:12:41.964Z,16.30
2019-06-07T19:16:22.183Z,16.30
2019-06-07T19:18:33.303Z,16.20
2019-06-07T19:22:00.153Z,16.20
2019-06-07T19:25:14.995Z,16.10
2019-06-07T19:35:22.211Z,16.10
2019-06-07T19:37:53.656Z,16.10
2019-06-07T19:41:18.325Z,16.00
2019-06-07T19:54:19.220Z,16.00
2019-06-07T19:59:12.132Z,16.00
2019-06-07T20:02:27.772Z,15.90
2019-06-07T20:05:39.557Z,15.90
2019-06-07T20:11:58.443Z,15.90
2019-06-07T20:15:18.759Z,15.90
2019-06-07T20:17:38.798Z,15.90
2019-06-07T20:23:43.797Z,15.90
2019-06-07T20:26:52.822Z,15.80
2019-06-07T20:41:42.844Z,15.80
2019-06-07T20:57:47.913Z,15.80
2019-06-07T21:00:44.349Z,15.80
2019-06-07T21:03:32.010Z,15.80
2019-06-07T21:07:05.350Z,15.80
2019-06-07T21:11:17.253Z,15.80
2019-06-07T21:17:27.800Z,15.80
2019-06-07T21:19:57.289Z,15.90
2019-06-07T21:40:26.457Z,16.10
2019-06-07T22:14:39.473Z,16.00
2019-06-07T22:20:16.489Z,15.80
2019-06-07T22:27:07.279Z,15.70
2019-06-07T22:38:29.742Z,15.40
2019-06-07T23:09:39.548Z,15.10
2019-06-07T23:23:37.791Z,15.10
2019-06-07T23:27:11.127Z,15.10
